createdAt,value
2018-12-20T00:11:25.379Z,82.8
2018-12-20T00:26:36.832Z,82.3
2018-12-20T00:41:48.228Z,82.7
2018-12-20T00:57:00.089Z,83.1
2018-12-20T01:12:11.560Z,81.1
2018-12-20T01:27:23.110Z,81.3
2018-12-20T01:42:30.523Z,81.3
2018-12-20T01:57:46.361Z,80.1
2018-12-20T02:12:58.201Z,81.2
2018-12-20T02:28:09.638Z,82.2
2018-12-20T02:43:20.944Z,82.7
2018-12-20T02:58:33.148Z,81.7
2018-12-20T03:13:44.391Z,81.8
2018-12-20T03:28:55.774Z,81.7
2018-12-20T03:44:07.245Z,81.9
2018-12-20T03:59:17.000Z,81.7
2018-12-20T04:14:30.508Z,81.6
2018-12-20T04:29:42.335Z,82
2018-12-20T04:44:53.219Z,82.3
2018-12-20T04:59:56.846Z,82.4
2018-12-20T05:15:16.516Z,82.3
2018-12-20T05:30:27.423Z,81.8
2018-12-20T05:45:39.189Z,81.3
2018-12-20T06:00:50.668Z,80.2
2018-12-20T06:16:01.608Z,81
2018-12-20T06:31:12.824Z,82
2018-12-20T06:46:24.326Z,83
2018-12-20T07:01:35.565Z,83.5
2018-12-20T07:16:40.955Z,83
2018-12-20T07:31:58.230Z,84.1
2018-12-20T07:47:09.598Z,83.4
2018-12-20T08:02:21.029Z,83.1
2018-12-20T08:17:32.498Z,82.3
2018-12-20T08:32:43.970Z,82.6
2018-12-20T08:47:55.475Z,82
2018-12-20T09:03:06.990Z,82.7
2018-12-20T09:18:18.458Z,81.9
2018-12-20T09:33:25.891Z,81.6
2018-12-20T09:48:41.644Z,81.2
2018-12-20T10:03:53.301Z,82
2018-12-20T10:19:05.018Z,82.6
2018-12-20T10:34:16.696Z,79.7
2018-12-20T10:49:28.141Z,81.6
2018-12-20T11:04:39.869Z,81.5
2018-12-20T11:19:51.894Z,80.3
2018-12-20T11:35:03.939Z,78
2018-12-20T11:50:15.248Z,78.5
2018-12-20T12:05:27.846Z,77.7
2018-12-20T12:20:39.868Z,77.5
2018-12-20T12:35:51.846Z,76.8
2018-12-20T12:50:58.379Z,76
2018-12-20T13:06:16.012Z,77
2018-12-20T13:21:27.893Z,76.4
2018-12-20T13:36:40.220Z,79.6
2018-12-20T13:51:52.412Z,84.4
2018-12-20T14:07:04.729Z,84.5
2018-12-20T14:22:17.116Z,87.7
2018-12-20T14:37:28.859Z,79.8
2018-12-20T14:52:40.810Z,77.2
2018-12-20T15:07:52.566Z,77
2018-12-20T15:23:04.769Z,79.3
2018-12-20T15:38:16.711Z,79
2018-12-20T15:53:28.411Z,80.3
2018-12-20T16:08:35.098Z,82.2
2018-12-20T16:23:52.957Z,80.8
2018-12-20T16:39:05.284Z,80.8
2018-12-20T16:54:17.584Z,82.1
2018-12-20T17:09:29.481Z,82.2
2018-12-20T17:24:41.410Z,82.1
2018-12-20T17:39:53.447Z,83.2
2018-12-20T17:55:05.399Z,83.5
2018-12-20T18:10:17.571Z,84.2
2018-12-20T18:25:26.353Z,84
2018-12-20T18:40:42.052Z,83.2
2018-12-20T18:55:53.911Z,83
2018-12-20T19:11:06.121Z,83.7
2018-12-20T19:26:09.220Z,84.7
2018-12-20T19:41:30.573Z,83.8
2018-12-20T19:56:42.622Z,84.1
2018-12-20T20:11:54.875Z,84.5
2018-12-20T20:27:22.736Z,83.9
2018-12-20T20:43:16.937Z,84.7
2018-12-20T20:58:29.744Z,82.3
2018-12-20T21:13:42.796Z,88.7
2018-12-20T21:28:55.674Z,84
2018-12-20T21:44:05.510Z,80.7
2018-12-20T21:59:25.189Z,77.3
2018-12-20T22:14:34.136Z,74.6
2018-12-20T22:23:07.686Z,78
2018-12-20T22:38:20.749Z,74
2018-12-20T22:53:33.729Z,73.1
2018-12-20T23:08:47.533Z,72.5
2018-12-20T23:23:59.252Z,71.3
2018-12-20T23:39:13.150Z,71.8
2018-12-20T23:54:26.122Z,72.4
